PWSweather.com
Personal Weather Stations
Station Observations
CW3999
Hillsboro, OR 97123

Hillsboro, OR 97123

Lat: 45.4667, Lon: -122.951

Elevation: 155

Station Type: Davis Vantage Pro2

High Low Average
Temperature 88.5°F31.4°C 54.5°F12.5°C 72.8°F22.7°C
Dew Point 60.1°F15.6°C 50.4°F10.2°C 56.3°F13.5°C
Winds 9.6 mph 15.4 kmh Calm Calm 3.0 mph WSW4.8 kmh WSW
Wind Gusts 12.1 mph19.5 kmh -- 3.0 mph4.8 kmh
Humidity 87% 35% 60%
Pressure 30.16 in1021.3 mb 29.97 in1014.9 mb -
Precipitation 0.00 in0.0 mm - -
Hour Temp Dew Point Humidity Winds Wind Gusts Pressure Precip Precip Rate Daily Precip Total
12:02 AM 61.9°F16.6°C 56.3°F13.5°C 82% 1.3 mph NW2.1 kmh NW -- 30.16 in1021.3 mb - 0.00 in0.0 mm 0.00 in0.0 mm
12:07 AM 61.9°F16.6°C 56.3°F13.5°C 82% 1.3 mph NW2.1 kmh NW 0.9 mph1.4 kmh 30.16 in1021.3 mb - 0.00 in0.0 mm 0.00 in0.0 mm
12:12 AM 61.7°F16.5°C 56.1°F13.4°C 82% 1.8 mph NW2.9 kmh NW 0.9 mph1.4 kmh 30.16 in1021.3 mb - 0.00 in0.0 mm 0.00 in0.0 mm
12:17 AM 61.7°F16.5°C 56.1°F13.4°C 82% 2.0 mph NW3.2 kmh NW 0.9 mph1.4 kmh 30.15 in1021.0 mb - 0.00 in0.0 mm 0.00 in0.0 mm
12:22 AM 61.5°F16.4°C 56.3°F13.5°C 83% 1.8 mph NW2.9 kmh NW 0.9 mph1.4 kmh 30.15 in1021.0 mb - 0.00 in0.0 mm 0.00 in0.0 mm
12:27 AM 61.5°F16.4°C 55.9°F13.3°C 82% 0.9 mph NW1.4 kmh NW -- 30.15 in1021.0 mb - 0.00 in0.0 mm 0.00 in0.0 mm
12:32 AM 61.5°F16.4°C 55.9°F13.3°C 82% 0.4 mph NW0.6 kmh NW 2.0 mph3.2 kmh 30.15 in1021.0 mb - 0.00 in0.0 mm 0.00 in0.0 mm
12:37 AM 61.3°F16.3°C 56.1°F13.4°C 83% 0.7 mph NW1.1 kmh NW -- 30.15 in1021.0 mb - 0.00 in0.0 mm 0.00 in0.0 mm
12:42 AM 61.3°F16.3°C 56.1°F13.4°C 83% 0.4 mph NW0.6 kmh NW -- 30.15 in1021.0 mb - 0.00 in0.0 mm 0.00 in0.0 mm
12:47 AM 61.2°F16.2°C 55.9°F13.3°C 83% 0.4 mph NW0.6 kmh NW 2.9 mph4.7 kmh 30.15 in1021.0 mb - 0.00 in0.0 mm 0.00 in0.0 mm
12:52 AM 61.2°F16.2°C 55.9°F13.3°C 83% 0.9 mph NW1.4 kmh NW 0.9 mph1.4 kmh 30.15 in1021.0 mb - 0.00 in0.0 mm 0.00 in0.0 mm
12:57 AM 61.2°F16.2°C 55.9°F13.3°C 83% 1.3 mph NW2.1 kmh NW 0.9 mph1.4 kmh 30.15 in1021.0 mb - 0.00 in0.0 mm 0.00 in0.0 mm
01:02 AM 61.2°F16.2°C 55.9°F13.3°C 83% 1.8 mph NW2.9 kmh NW -- 30.15 in1021.0 mb - 0.00 in0.0 mm 0.00 in0.0 mm
01:07 AM 61.0°F16.1°C 55.8°F13.2°C 83% 1.6 mph NW2.6 kmh NW 2.9 mph4.7 kmh 30.15 in1021.0 mb - 0.00 in0.0 mm 0.00 in0.0 mm
01:12 AM 61.0°F16.1°C 55.8°F13.2°C 83% 0.9 mph NW1.4 kmh NW 2.0 mph3.2 kmh 30.15 in1021.0 mb - 0.00 in0.0 mm 0.00 in0.0 mm
01:17 AM 61.0°F16.1°C 55.8°F13.2°C 83% 0.7 mph NW1.1 kmh NW -- 30.15 in1021.0 mb - 0.00 in0.0 mm 0.00 in0.0 mm
01:22 AM 60.8°F16.0°C 55.6°F13.1°C 83% Calm Calm -- 30.15 in1021.0 mb - 0.00 in0.0 mm 0.00 in0.0 mm
01:27 AM 60.6°F15.9°C 55.4°F13.0°C 83% Calm Calm -- 30.15 in1021.0 mb - 0.00 in0.0 mm 0.00 in0.0 mm
01:32 AM 60.6°F15.9°C 55.4°F13.0°C 83% 0.4 mph NW0.6 kmh NW 2.9 mph4.7 kmh 30.15 in1021.0 mb - 0.00 in0.0 mm 0.00 in0.0 mm
01:37 AM 60.4°F15.8°C 55.2°F12.9°C 83% 0.9 mph NW1.4 kmh NW 0.9 mph1.4 kmh 30.15 in1021.0 mb - 0.00 in0.0 mm 0.00 in0.0 mm
01:42 AM 60.4°F15.8°C 55.2°F12.9°C 83% 0.9 mph W1.4 kmh W 4.0 mph6.4 kmh 30.15 in1021.0 mb - 0.00 in0.0 mm 0.00 in0.0 mm
01:47 AM 60.4°F15.8°C 55.2°F12.9°C 83% 1.1 mph NW1.8 kmh NW 4.0 mph6.4 kmh 30.15 in1021.0 mb - 0.00 in0.0 mm 0.00 in0.0 mm
01:52 AM 60.4°F15.8°C 55.2°F12.9°C 83% 1.1 mph NW1.8 kmh NW 2.0 mph3.2 kmh 30.15 in1021.0 mb - 0.00 in0.0 mm 0.00 in0.0 mm
01:57 AM 60.3°F15.7°C 55.0°F12.8°C 83% 0.7 mph NW1.1 kmh NW 2.0 mph3.2 kmh 30.15 in1021.0 mb - 0.00 in0.0 mm 0.00 in0.0 mm
02:02 AM 60.3°F15.7°C 55.0°F12.8°C 83% 1.1 mph NW1.8 kmh NW -- 30.15 in1021.0 mb - 0.00 in0.0 mm 0.00 in0.0 mm
02:07 AM 60.3°F15.7°C 55.0°F12.8°C 83% 1.6 mph NW2.6 kmh NW 0.9 mph1.4 kmh 30.15 in1021.0 mb - 0.00 in0.0 mm 0.00 in0.0 mm
02:12 AM 60.1°F15.6°C 54.9°F12.7°C 83% 1.8 mph NW2.9 kmh NW 2.0 mph3.2 kmh 30.15 in1021.0 mb - 0.00 in0.0 mm 0.00 in0.0 mm
02:17 AM 60.1°F15.6°C 54.9°F12.7°C 83% 1.6 mph WNW2.6 kmh WNW -- 30.15 in1021.0 mb - 0.00 in0.0 mm 0.00 in0.0 mm
02:22 AM 60.1°F15.6°C 54.9°F12.7°C 83% 0.9 mph WNW1.4 kmh WNW -- 30.15 in1021.0 mb - 0.00 in0.0 mm 0.00 in0.0 mm
02:27 AM 60.1°F15.6°C 54.9°F12.7°C 83% 0.7 mph WNW1.1 kmh WNW -- 30.15 in1021.0 mb - 0.00 in0.0 mm 0.00 in0.0 mm
02:32 AM 60.1°F15.6°C 54.9°F12.7°C 83% 0.2 mph WNW0.3 kmh WNW -- 30.15 in1021.0 mb - 0.00 in0.0 mm 0.00 in0.0 mm
02:37 AM 59.9°F15.5°C 54.7°F12.6°C 83% Calm Calm -- 30.15 in1021.0 mb - 0.00 in0.0 mm 0.00 in0.0 mm
02:42 AM 59.7°F15.4°C 54.5°F12.5°C 83% Calm Calm -- 30.15 in1021.0 mb - 0.00 in0.0 mm 0.00 in0.0 mm
02:47 AM 59.7°F15.4°C 54.5°F12.5°C 83% Calm Calm -- 30.15 in1021.0 mb - 0.00 in0.0 mm 0.00 in0.0 mm
02:52 AM 59.7°F15.4°C 54.5°F12.5°C 83% Calm Calm -- 30.15 in1021.0 mb - 0.00 in0.0 mm 0.00 in0.0 mm
02:57 AM 59.5°F15.3°C 54.3°F12.4°C 83% Calm Calm -- 30.15 in1021.0 mb - 0.00 in0.0 mm 0.00 in0.0 mm
03:02 AM 59.5°F15.3°C 54.3°F12.4°C 83% Calm Calm 0.9 mph1.4 kmh 30.15 in1021.0 mb - 0.00 in0.0 mm 0.00 in0.0 mm
03:07 AM 59.5°F15.3°C 54.3°F12.4°C 83% 0.4 mph WNW0.6 kmh WNW 0.9 mph1.4 kmh 30.15 in1021.0 mb - 0.00 in0.0 mm 0.00 in0.0 mm
03:12 AM 59.4°F15.2°C 54.1°F12.3°C 83% 0.4 mph WNW0.6 kmh WNW -- 30.15 in1021.0 mb - 0.00 in0.0 mm 0.00 in0.0 mm
03:17 AM 59.4°F15.2°C 54.1°F12.3°C 83% Calm Calm -- 30.15 in1021.0 mb - 0.00 in0.0 mm 0.00 in0.0 mm
03:22 AM 59.0°F15.0°C 53.8°F12.1°C 83% Calm Calm -- 30.15 in1021.0 mb - 0.00 in0.0 mm 0.00 in0.0 mm
03:27 AM 58.8°F14.9°C 53.6°F12.0°C 83% Calm Calm -- 30.15 in1021.0 mb - 0.00 in0.0 mm 0.00 in0.0 mm
03:32 AM 58.6°F14.8°C 53.4°F11.9°C 83% Calm Calm -- 30.15 in1021.0 mb - 0.00 in0.0 mm 0.00 in0.0 mm
03:37 AM 58.5°F14.7°C 53.2°F11.8°C 83% Calm Calm -- 30.15 in1021.0 mb - 0.00 in0.0 mm 0.00 in0.0 mm
03:42 AM 58.3°F14.6°C 53.4°F11.9°C 84% Calm Calm -- 30.15 in1021.0 mb - 0.00 in0.0 mm 0.00 in0.0 mm
03:47 AM 57.9°F14.4°C 53.1°F11.7°C 84% Calm Calm -- 30.15 in1021.0 mb - 0.00 in0.0 mm 0.00 in0.0 mm
03:52 AM 57.6°F14.2°C 52.7°F11.5°C 84% Calm Calm -- 30.15 in1021.0 mb - 0.00 in0.0 mm 0.00 in0.0 mm
03:57 AM 57.2°F14.0°C 52.3°F11.3°C 84% Calm Calm -- 30.15 in1021.0 mb - 0.00 in0.0 mm 0.00 in0.0 mm
04:02 AM 56.7°F13.7°C 51.8°F11.0°C 84% Calm Calm -- 30.15 in1021.0 mb - 0.00 in0.0 mm 0.00 in0.0 mm
04:07 AM 56.5°F13.6°C 52.0°F11.1°C 85% Calm Calm -- 30.15 in1021.0 mb - 0.00 in0.0 mm 0.00 in0.0 mm
04:12 AM 56.1°F13.4°C 51.6°F10.9°C 85% Calm Calm -- 30.15 in1021.0 mb - 0.00 in0.0 mm 0.00 in0.0 mm
04:17 AM 56.1°F13.4°C 51.6°F10.9°C 85% Calm Calm -- 30.15 in1021.0 mb - 0.00 in0.0 mm 0.00 in0.0 mm
04:22 AM 55.9°F13.3°C 51.4°F10.8°C 85% Calm Calm -- 30.15 in1021.0 mb - 0.00 in0.0 mm 0.00 in0.0 mm
04:27 AM 55.8°F13.2°C 51.3°F10.7°C 85% Calm Calm -- 30.15 in1021.0 mb - 0.00 in0.0 mm 0.00 in0.0 mm
04:32 AM 55.6°F13.1°C 51.1°F10.6°C 85% Calm Calm -- 30.15 in1021.0 mb - 0.00 in0.0 mm 0.00 in0.0 mm
04:37 AM 55.6°F13.1°C 51.1°F10.6°C 85% Calm Calm -- 30.14 in1020.7 mb - 0.00 in0.0 mm 0.00 in0.0 mm
04:42 AM 55.2°F12.9°C 50.7°F10.4°C 85% Calm Calm -- 30.15 in1021.0 mb - 0.00 in0.0 mm 0.00 in0.0 mm
04:47 AM 55.0°F12.8°C 50.5°F10.3°C 85% Calm Calm -- 30.15 in1021.0 mb - 0.00 in0.0 mm 0.00 in0.0 mm
04:52 AM 54.9°F12.7°C 50.4°F10.2°C 85% Calm Calm -- 30.15 in1021.0 mb - 0.00 in0.0 mm 0.00 in0.0 mm
04:57 AM 54.9°F12.7°C 50.7°F10.4°C 86% Calm Calm -- 30.15 in1021.0 mb - 0.00 in0.0 mm 0.00 in0.0 mm
05:02 AM 54.7°F12.6°C 50.5°F10.3°C 86% Calm Calm -- 30.15 in1021.0 mb - 0.00 in0.0 mm 0.00 in0.0 mm
05:07 AM 54.7°F12.6°C 50.5°F10.3°C 86% Calm Calm -- 30.15 in1021.0 mb - 0.00 in0.0 mm 0.00 in0.0 mm
05:12 AM 54.5°F12.5°C 50.4°F10.2°C 86% Calm Calm -- 30.15 in1021.0 mb - 0.00 in0.0 mm 0.00 in0.0 mm
05:17 AM 54.5°F12.5°C 50.4°F10.2°C 86% Calm Calm -- 30.15 in1021.0 mb - 0.00 in0.0 mm 0.00 in0.0 mm
05:22 AM 54.7°F12.6°C 50.5°F10.3°C 86% Calm Calm -- 30.14 in1020.7 mb - 0.00 in0.0 mm 0.00 in0.0 mm
05:27 AM 54.7°F12.6°C 50.5°F10.3°C 86% Calm Calm -- 30.14 in1020.7 mb - 0.00 in0.0 mm 0.00 in0.0 mm
05:32 AM 54.7°F12.6°C 50.5°F10.3°C 86% Calm Calm -- 30.15 in1021.0 mb - 0.00 in0.0 mm 0.00 in0.0 mm
05:37 AM 54.7°F12.6°C 50.5°F10.3°C 86% Calm Calm -- 30.14 in1020.7 mb - 0.00 in0.0 mm 0.00 in0.0 mm
05:42 AM 55.0°F12.8°C 51.3°F10.7°C 87% Calm Calm -- 30.14 in1020.7 mb - 0.00 in0.0 mm 0.00 in0.0 mm
05:47 AM 55.6°F13.1°C 51.8°F11.0°C 87% Calm Calm -- 30.14 in1020.7 mb - 0.00 in0.0 mm 0.00 in0.0 mm
05:52 AM 55.9°F13.3°C 52.2°F11.2°C 87% Calm Calm -- 30.14 in1020.7 mb - 0.00 in0.0 mm 0.00 in0.0 mm
05:57 AM 56.5°F13.6°C 52.7°F11.5°C 87% Calm Calm -- 30.14 in1020.7 mb - 0.00 in0.0 mm 0.00 in0.0 mm
06:02 AM 57.2°F14.0°C 53.4°F11.9°C 87% Calm Calm -- 30.14 in1020.7 mb - 0.00 in0.0 mm 0.00 in0.0 mm
06:07 AM 57.9°F14.4°C 54.1°F12.3°C 87% Calm Calm -- 30.14 in1020.7 mb - 0.00 in0.0 mm 0.00 in0.0 mm
06:12 AM 58.5°F14.7°C 54.7°F12.6°C 87% Calm Calm -- 30.14 in1020.7 mb - 0.00 in0.0 mm 0.00 in0.0 mm
06:17 AM 59.0°F15.0°C 54.9°F12.7°C 86% Calm Calm -- 30.15 in1021.0 mb - 0.00 in0.0 mm 0.00 in0.0 mm
06:22 AM 59.4°F15.2°C 55.2°F12.9°C 86% Calm Calm -- 30.15 in1021.0 mb - 0.00 in0.0 mm 0.00 in0.0 mm
06:27 AM 59.9°F15.5°C 55.4°F13.0°C 85% Calm Calm -- 30.15 in1021.0 mb - 0.00 in0.0 mm 0.00 in0.0 mm
06:32 AM 60.4°F15.8°C 55.9°F13.3°C 85% Calm Calm -- 30.14 in1020.7 mb - 0.00 in0.0 mm 0.00 in0.0 mm
06:37 AM 60.8°F16.0°C 55.9°F13.3°C 84% Calm Calm -- 30.15 in1021.0 mb - 0.00 in0.0 mm 0.00 in0.0 mm
06:42 AM 61.3°F16.3°C 56.1°F13.4°C 83% Calm Calm -- 30.15 in1021.0 mb - 0.00 in0.0 mm 0.00 in0.0 mm
06:47 AM 61.9°F16.6°C 56.3°F13.5°C 82% Calm Calm -- 30.15 in1021.0 mb - 0.00 in0.0 mm 0.00 in0.0 mm
06:52 AM 62.2°F16.8°C 56.3°F13.5°C 81% Calm Calm -- 30.14 in1020.7 mb - 0.00 in0.0 mm 0.00 in0.0 mm
06:57 AM 63.0°F17.2°C 56.3°F13.5°C 79% Calm Calm -- 30.15 in1021.0 mb - 0.00 in0.0 mm 0.00 in0.0 mm
07:02 AM 63.1°F17.3°C 56.1°F13.4°C 78% Calm Calm -- 30.14 in1020.7 mb - 0.00 in0.0 mm 0.00 in0.0 mm
07:07 AM 63.3°F17.4°C 55.9°F13.3°C 77% Calm Calm -- 30.15 in1021.0 mb - 0.00 in0.0 mm 0.00 in0.0 mm
07:12 AM 63.9°F17.7°C 56.1°F13.4°C 76% Calm Calm 4.0 mph6.4 kmh 30.14 in1020.7 mb - 0.00 in0.0 mm 0.00 in0.0 mm
07:17 AM 64.0°F17.8°C 55.9°F13.3°C 75% 0.7 mph NNW1.1 kmh NNW -- 30.14 in1020.7 mb - 0.00 in0.0 mm 0.00 in0.0 mm
07:22 AM 64.6°F18.1°C 56.5°F13.6°C 75% 1.6 mph N2.6 kmh N 2.0 mph3.2 kmh 30.14 in1020.7 mb - 0.00 in0.0 mm 0.00 in0.0 mm
07:27 AM 64.8°F18.2°C 56.3°F13.5°C 74% 1.8 mph N2.9 kmh N 2.9 mph4.7 kmh 30.14 in1020.7 mb - 0.00 in0.0 mm 0.00 in0.0 mm
07:32 AM 64.9°F18.3°C 56.1°F13.4°C 73% 2.0 mph N3.2 kmh N 8.1 mph13.0 kmh 30.14 in1020.7 mb - 0.00 in0.0 mm 0.00 in0.0 mm
07:37 AM 65.3°F18.5°C 56.1°F13.4°C 72% 2.7 mph NNE4.3 kmh NNE 2.0 mph3.2 kmh 30.14 in1020.7 mb - 0.00 in0.0 mm 0.00 in0.0 mm
07:42 AM 65.7°F18.7°C 56.3°F13.5°C 72% 3.1 mph NNW5.0 kmh NNW 8.9 mph14.3 kmh 30.14 in1020.7 mb - 0.00 in0.0 mm 0.00 in0.0 mm
07:47 AM 66.0°F18.9°C 56.3°F13.5°C 71% 3.4 mph N5.5 kmh N 2.0 mph3.2 kmh 30.14 in1020.7 mb - 0.00 in0.0 mm 0.00 in0.0 mm
07:52 AM 66.4°F19.1°C 56.3°F13.5°C 70% 3.8 mph NNW6.1 kmh NNW 4.0 mph6.4 kmh 30.14 in1020.7 mb - 0.00 in0.0 mm 0.00 in0.0 mm
07:57 AM 66.6°F19.2°C 56.1°F13.4°C 69% 3.8 mph N6.1 kmh N 2.0 mph3.2 kmh 30.14 in1020.7 mb - 0.00 in0.0 mm 0.00 in0.0 mm
08:02 AM 66.7°F19.3°C 56.3°F13.5°C 69% 3.8 mph NNW6.1 kmh NNW 4.0 mph6.4 kmh 30.14 in1020.7 mb - 0.00 in0.0 mm 0.00 in0.0 mm
08:07 AM 67.1°F19.5°C 56.7°F13.7°C 69% 3.6 mph NW5.8 kmh NW 8.1 mph13.0 kmh 30.14 in1020.7 mb - 0.00 in0.0 mm 0.00 in0.0 mm
08:12 AM 67.8°F19.9°C 56.8°F13.8°C 68% 4.0 mph NNW6.4 kmh NNW 8.1 mph13.0 kmh 30.14 in1020.7 mb - 0.00 in0.0 mm 0.00 in0.0 mm
08:17 AM 68.2°F20.1°C 56.3°F13.5°C 66% 4.5 mph NNW7.2 kmh NNW 8.1 mph13.0 kmh 30.14 in1020.7 mb - 0.00 in0.0 mm 0.00 in0.0 mm
08:22 AM 68.5°F20.3°C 56.7°F13.7°C 66% 4.0 mph 6.4 kmh 2.9 mph4.7 kmh 30.14 in1020.7 mb - 0.00 in0.0 mm 0.00 in0.0 mm
08:27 AM 69.1°F20.6°C 56.8°F13.8°C 65% 3.8 mph NNW6.1 kmh NNW 10.1 mph16.3 kmh 30.14 in1020.7 mb - 0.00 in0.0 mm 0.00 in0.0 mm
08:32 AM 69.3°F20.7°C 56.5°F13.6°C 64% 4.3 mph NE6.9 kmh NE 4.9 mph7.9 kmh 30.14 in1020.7 mb - 0.00 in0.0 mm 0.00 in0.0 mm
08:37 AM 69.3°F20.7°C 56.5°F13.6°C 64% 4.3 mph NW6.9 kmh NW 0.9 mph1.4 kmh 30.14 in1020.7 mb - 0.00 in0.0 mm 0.00 in0.0 mm
08:42 AM 69.4°F20.8°C 56.7°F13.7°C 64% 3.8 mph NE6.1 kmh NE 2.0 mph3.2 kmh 30.13 in1020.3 mb - 0.00 in0.0 mm 0.00 in0.0 mm
08:47 AM 70.2°F21.2°C 57.0°F13.9°C 63% 2.7 mph NNW4.3 kmh NNW 2.0 mph3.2 kmh 30.13 in1020.3 mb - 0.00 in0.0 mm 0.00 in0.0 mm
08:52 AM 70.2°F21.2°C 56.5°F13.6°C 62% 2.7 mph NE4.3 kmh NE 2.9 mph4.7 kmh 30.13 in1020.3 mb - 0.00 in0.0 mm 0.00 in0.0 mm
08:57 AM 70.0°F21.1°C 56.8°F13.8°C 63% 2.9 mph N4.7 kmh N 2.9 mph4.7 kmh 30.13 in1020.3 mb - 0.00 in0.0 mm 0.00 in0.0 mm
09:02 AM 70.0°F21.1°C 56.8°F13.8°C 63% 1.6 mph ESE2.6 kmh ESE -- 30.13 in1020.3 mb - 0.00 in0.0 mm 0.00 in0.0 mm
09:07 AM 70.7°F21.5°C 57.9°F14.4°C 64% 2.5 mph NNE4.0 kmh NNE 4.0 mph6.4 kmh 30.13 in1020.3 mb - 0.00 in0.0 mm 0.00 in0.0 mm
09:12 AM 70.9°F21.6°C 57.2°F14.0°C 62% 2.9 mph N4.7 kmh N 4.0 mph6.4 kmh 30.13 in1020.3 mb - 0.00 in0.0 mm 0.00 in0.0 mm
09:17 AM 70.9°F21.6°C 56.8°F13.8°C 61% 2.7 mph N4.3 kmh N 4.0 mph6.4 kmh 30.12 in1020.0 mb - 0.00 in0.0 mm 0.00 in0.0 mm
09:22 AM 71.2°F21.8°C 56.7°F13.7°C 60% 3.1 mph N5.0 kmh N 2.0 mph3.2 kmh 30.12 in1020.0 mb - 0.00 in0.0 mm 0.00 in0.0 mm
09:27 AM 71.6°F22.0°C 57.0°F13.9°C 60% 2.5 mph N4.0 kmh N -- 30.12 in1020.0 mb - 0.00 in0.0 mm 0.00 in0.0 mm
09:32 AM 72.3°F22.4°C 57.2°F14.0°C 59% 2.0 mph N3.2 kmh N 6.0 mph9.7 kmh 30.12 in1020.0 mb - 0.00 in0.0 mm 0.00 in0.0 mm
09:37 AM 72.5°F22.5°C 57.4°F14.1°C 59% 3.1 mph NE5.0 kmh NE 4.9 mph7.9 kmh 30.12 in1020.0 mb - 0.00 in0.0 mm 0.00 in0.0 mm
09:42 AM 72.3°F22.4°C 57.2°F14.0°C 59% 3.4 mph NW5.5 kmh NW 2.9 mph4.7 kmh 30.12 in1020.0 mb - 0.00 in0.0 mm 0.00 in0.0 mm
09:47 AM 73.0°F22.8°C 56.8°F13.8°C 57% 4.3 mph N6.9 kmh N 4.9 mph7.9 kmh 30.12 in1020.0 mb - 0.00 in0.0 mm 0.00 in0.0 mm
09:52 AM 73.0°F22.8°C 57.4°F14.1°C 58% 3.4 mph ENE5.5 kmh ENE -- 30.12 in1020.0 mb - 0.00 in0.0 mm 0.00 in0.0 mm
09:57 AM 73.4°F23.0°C 57.2°F14.0°C 57% 2.2 mph NNW3.5 kmh NNW 0.9 mph1.4 kmh 30.11 in1019.6 mb - 0.00 in0.0 mm 0.00 in0.0 mm
10:02 AM 73.8°F23.2°C 56.7°F13.7°C 55% 2.0 mph 3.2 kmh 4.0 mph6.4 kmh 30.11 in1019.6 mb - 0.00 in0.0 mm 0.00 in0.0 mm
10:07 AM 73.9°F23.3°C 56.8°F13.8°C 55% 2.9 mph NW4.7 kmh NW 4.0 mph6.4 kmh 30.11 in1019.6 mb - 0.00 in0.0 mm 0.00 in0.0 mm
10:12 AM 74.7°F23.7°C 56.8°F13.8°C 54% 3.1 mph NNW5.0 kmh NNW 4.0 mph6.4 kmh 30.11 in1019.6 mb - 0.00 in0.0 mm 0.00 in0.0 mm
10:17 AM 74.7°F23.7°C 57.4°F14.1°C 55% 2.5 mph N4.0 kmh N 2.0 mph3.2 kmh 30.11 in1019.6 mb - 0.00 in0.0 mm 0.00 in0.0 mm
10:22 AM 74.8°F23.8°C 56.5°F13.6°C 53% 2.7 mph N4.3 kmh N 2.0 mph3.2 kmh 30.11 in1019.6 mb - 0.00 in0.0 mm 0.00 in0.0 mm
10:27 AM 75.0°F23.9°C 57.2°F14.0°C 54% 1.8 mph N2.9 kmh N 2.9 mph4.7 kmh 30.11 in1019.6 mb - 0.00 in0.0 mm 0.00 in0.0 mm
10:32 AM 75.4°F24.1°C 57.0°F13.9°C 53% 1.8 mph ENE2.9 kmh ENE 4.0 mph6.4 kmh 30.10 in1019.3 mb - 0.00 in0.0 mm 0.00 in0.0 mm
10:37 AM 75.4°F24.1°C 57.0°F13.9°C 53% 2.5 mph NNW4.0 kmh NNW 8.1 mph13.0 kmh 30.10 in1019.3 mb - 0.00 in0.0 mm 0.00 in0.0 mm
10:42 AM 76.6°F24.8°C 58.3°F14.6°C 53% 3.4 mph NW5.5 kmh NW 4.9 mph7.9 kmh 30.10 in1019.3 mb - 0.00 in0.0 mm 0.00 in0.0 mm
10:47 AM 76.8°F24.9°C 56.8°F13.8°C 50% 4.7 mph NE7.6 kmh NE 4.0 mph6.4 kmh 30.10 in1019.3 mb - 0.00 in0.0 mm 0.00 in0.0 mm
10:52 AM 76.6°F24.8°C 56.7°F13.7°C 50% 3.6 mph 5.8 kmh 2.0 mph3.2 kmh 30.10 in1019.3 mb - 0.00 in0.0 mm 0.00 in0.0 mm
10:57 AM 76.8°F24.9°C 56.8°F13.8°C 50% 3.1 mph NW5.0 kmh NW 4.0 mph6.4 kmh 30.09 in1019.0 mb - 0.00 in0.0 mm 0.00 in0.0 mm
11:02 AM 77.7°F25.4°C 56.5°F13.6°C 48% 4.5 mph N7.2 kmh N 4.9 mph7.9 kmh 30.09 in1019.0 mb - 0.00 in0.0 mm 0.00 in0.0 mm
11:07 AM 77.7°F25.4°C 56.5°F13.6°C 48% 5.1 mph NNW8.2 kmh NNW 8.1 mph13.0 kmh 30.09 in1019.0 mb - 0.00 in0.0 mm 0.00 in0.0 mm
11:12 AM 78.1°F25.6°C 56.3°F13.5°C 47% 4.3 mph N6.9 kmh N 2.0 mph3.2 kmh 30.09 in1019.0 mb - 0.00 in0.0 mm 0.00 in0.0 mm
11:17 AM 78.6°F25.9°C 56.7°F13.7°C 47% 2.7 mph N4.3 kmh N 2.0 mph3.2 kmh 30.09 in1019.0 mb - 0.00 in0.0 mm 0.00 in0.0 mm
11:22 AM 79.2°F26.2°C 56.7°F13.7°C 46% 3.1 mph NNW5.0 kmh NNW 8.1 mph13.0 kmh 30.09 in1019.0 mb - 0.00 in0.0 mm 0.00 in0.0 mm
11:27 AM 79.3°F26.3°C 56.8°F13.8°C 46% 4.5 mph NNE7.2 kmh NNE 4.0 mph6.4 kmh 30.08 in1018.6 mb - 0.00 in0.0 mm 0.00 in0.0 mm
11:32 AM 79.2°F26.2°C 55.9°F13.3°C 45% 3.4 mph NW5.5 kmh NW 6.9 mph11.1 kmh 30.08 in1018.6 mb - 0.00 in0.0 mm 0.00 in0.0 mm
11:37 AM 79.9°F26.6°C 57.2°F14.0°C 46% 2.9 mph NW4.7 kmh NW 8.1 mph13.0 kmh 30.08 in1018.6 mb - 0.00 in0.0 mm 0.00 in0.0 mm
11:42 AM 79.7°F26.5°C 55.9°F13.3°C 44% 3.6 mph NW5.8 kmh NW 4.0 mph6.4 kmh 30.08 in1018.6 mb - 0.00 in0.0 mm 0.00 in0.0 mm
11:47 AM 80.4°F26.9°C 56.5°F13.6°C 44% 4.7 mph NNW7.6 kmh NNW 4.0 mph6.4 kmh 30.08 in1018.6 mb - 0.00 in0.0 mm 0.00 in0.0 mm
11:52 AM 80.4°F26.9°C 55.9°F13.3°C 43% 5.8 mph NW9.3 kmh NW 2.0 mph3.2 kmh 30.07 in1018.3 mb - 0.00 in0.0 mm 0.00 in0.0 mm
11:57 AM 81.0°F27.2°C 56.3°F13.5°C 43% 5.8 mph N9.3 kmh N 0.9 mph1.4 kmh 30.07 in1018.3 mb - 0.00 in0.0 mm 0.00 in0.0 mm
12:02 PM 81.5°F27.5°C 57.6°F14.2°C 44% 5.4 mph NNW8.7 kmh NNW 4.9 mph7.9 kmh 30.07 in1018.3 mb - 0.00 in0.0 mm 0.00 in0.0 mm
12:07 PM 82.0°F27.8°C 56.7°F13.7°C 42% 5.6 mph NW9.0 kmh NW 6.9 mph11.1 kmh 30.06 in1017.9 mb - 0.00 in0.0 mm 0.00 in0.0 mm
12:12 PM 82.2°F27.9°C 56.8°F13.8°C 42% 5.8 mph N9.3 kmh N 4.0 mph6.4 kmh 30.06 in1017.9 mb - 0.00 in0.0 mm 0.00 in0.0 mm
12:17 PM 82.6°F28.1°C 56.5°F13.6°C 41% 4.9 mph NNW7.9 kmh NNW 4.0 mph6.4 kmh 30.06 in1017.9 mb - 0.00 in0.0 mm 0.00 in0.0 mm
12:22 PM 82.0°F27.8°C 55.9°F13.3°C 41% 3.6 mph NW5.8 kmh NW 4.9 mph7.9 kmh 30.06 in1017.9 mb - 0.00 in0.0 mm 0.00 in0.0 mm
12:27 PM 82.2°F27.9°C 56.8°F13.8°C 42% 2.0 mph NW3.2 kmh NW 4.9 mph7.9 kmh 30.06 in1017.9 mb - 0.00 in0.0 mm 0.00 in0.0 mm
12:32 PM 82.8°F28.2°C 55.9°F13.3°C 40% 3.6 mph NNW5.8 kmh NNW 4.0 mph6.4 kmh 30.05 in1017.6 mb - 0.00 in0.0 mm 0.00 in0.0 mm
12:37 PM 83.3°F28.5°C 55.8°F13.2°C 39% 4.7 mph NNW7.6 kmh NNW 4.0 mph6.4 kmh 30.05 in1017.6 mb - 0.00 in0.0 mm 0.00 in0.0 mm
12:42 PM 83.8°F28.8°C 55.6°F13.1°C 38% 4.7 mph NW7.6 kmh NW 4.0 mph6.4 kmh 30.05 in1017.6 mb - 0.00 in0.0 mm 0.00 in0.0 mm
12:47 PM 83.5°F28.6°C 55.9°F13.3°C 39% 4.3 mph 6.9 kmh 4.0 mph6.4 kmh 30.05 in1017.6 mb - 0.00 in0.0 mm 0.00 in0.0 mm
12:52 PM 83.8°F28.8°C 57.0°F13.9°C 40% 2.9 mph NW4.7 kmh NW 2.0 mph3.2 kmh 30.05 in1017.6 mb - 0.00 in0.0 mm 0.00 in0.0 mm
12:57 PM 84.7°F29.3°C 56.3°F13.5°C 38% 3.4 mph NNE5.5 kmh NNE 6.9 mph11.1 kmh 30.04 in1017.3 mb - 0.00 in0.0 mm 0.00 in0.0 mm
01:02 PM 84.4°F29.1°C 55.9°F13.3°C 38% 4.0 mph NW6.4 kmh NW -- 30.04 in1017.3 mb - 0.00 in0.0 mm 0.00 in0.0 mm
01:07 PM 84.9°F29.4°C 55.8°F13.2°C 37% 4.5 mph N7.2 kmh N 2.9 mph4.7 kmh 30.04 in1017.3 mb - 0.00 in0.0 mm 0.00 in0.0 mm
01:12 PM 85.3°F29.6°C 55.2°F12.9°C 36% 4.9 mph N7.9 kmh N -- 30.04 in1017.3 mb - 0.00 in0.0 mm 0.00 in0.0 mm
01:17 PM 85.3°F29.6°C 55.2°F12.9°C 36% 4.0 mph NE6.4 kmh NE 2.0 mph3.2 kmh 30.04 in1017.3 mb - 0.00 in0.0 mm 0.00 in0.0 mm
01:22 PM 84.6°F29.2°C 55.4°F13.0°C 37% 2.5 mph 4.0 kmh 0.9 mph1.4 kmh 30.03 in1016.9 mb - 0.00 in0.0 mm 0.00 in0.0 mm
01:27 PM 85.5°F29.7°C 54.7°F12.6°C 35% 3.8 mph NNW6.1 kmh NNW 0.9 mph1.4 kmh 30.03 in1016.9 mb - 0.00 in0.0 mm 0.00 in0.0 mm
01:32 PM 85.6°F29.8°C 55.6°F13.1°C 36% 2.9 mph NNW4.7 kmh NNW -- 30.03 in1016.9 mb - 0.00 in0.0 mm 0.00 in0.0 mm
01:37 PM 85.5°F29.7°C 55.4°F13.0°C 36% 1.1 mph N1.8 kmh N 4.9 mph7.9 kmh 30.03 in1016.9 mb - 0.00 in0.0 mm 0.00 in0.0 mm
01:42 PM 85.6°F29.8°C 55.6°F13.1°C 36% 3.1 mph NNE5.0 kmh NNE 0.9 mph1.4 kmh 30.03 in1016.9 mb - 0.00 in0.0 mm 0.00 in0.0 mm
01:47 PM 85.6°F29.8°C 55.6°F13.1°C 36% 2.7 mph N4.3 kmh N -- 30.02 in1016.6 mb - 0.00 in0.0 mm 0.00 in0.0 mm
01:52 PM 86.2°F30.1°C 56.1°F13.4°C 36% 0.9 mph NNE1.4 kmh NNE 6.0 mph9.7 kmh 30.02 in1016.6 mb - 0.00 in0.0 mm 0.00 in0.0 mm
01:57 PM 86.2°F30.1°C 56.1°F13.4°C 36% 1.6 mph NE2.6 kmh NE -- 30.02 in1016.6 mb - 0.00 in0.0 mm 0.00 in0.0 mm
02:02 PM 86.9°F30.5°C 57.6°F14.2°C 37% 2.5 mph N4.0 kmh N 6.0 mph9.7 kmh 30.02 in1016.6 mb - 0.00 in0.0 mm 0.00 in0.0 mm
02:07 PM 86.9°F30.5°C 55.9°F13.3°C 35% 4.5 mph NNE7.2 kmh NNE 2.0 mph3.2 kmh 30.02 in1016.6 mb - 0.00 in0.0 mm 0.00 in0.0 mm
02:12 PM 87.1°F30.6°C 56.1°F13.4°C 35% 4.0 mph NW6.4 kmh NW 2.9 mph4.7 kmh 30.02 in1016.6 mb - 0.00 in0.0 mm 0.00 in0.0 mm
02:17 PM 87.1°F30.6°C 56.8°F13.8°C 36% 3.1 mph N5.0 kmh N -- 30.01 in1016.3 mb - 0.00 in0.0 mm 0.00 in0.0 mm
02:22 PM 87.3°F30.7°C 56.3°F13.5°C 35% 3.1 mph NNW5.0 kmh NNW 2.0 mph3.2 kmh 30.01 in1016.3 mb - 0.00 in0.0 mm 0.00 in0.0 mm
02:27 PM 88.3°F31.3°C 57.2°F14.0°C 35% 2.9 mph NE4.7 kmh NE 4.9 mph7.9 kmh 30.01 in1016.3 mb - 0.00 in0.0 mm 0.00 in0.0 mm
02:32 PM 87.4°F30.8°C 56.5°F13.6°C 35% 3.1 mph NNE5.0 kmh NNE 4.0 mph6.4 kmh 30.01 in1016.3 mb - 0.00 in0.0 mm 0.00 in0.0 mm
02:37 PM 87.4°F30.8°C 57.9°F14.4°C 37% 2.7 mph NNW4.3 kmh NNW 4.0 mph6.4 kmh 30.01 in1016.3 mb - 0.00 in0.0 mm 0.00 in0.0 mm
02:42 PM 87.8°F31.0°C 56.7°F13.7°C 35% 4.0 mph N6.4 kmh N 0.9 mph1.4 kmh 30.00 in1015.9 mb - 0.00 in0.0 mm 0.00 in0.0 mm
02:47 PM 87.4°F30.8°C 57.2°F14.0°C 36% 3.6 mph NNE5.8 kmh NNE 0.9 mph1.4 kmh 30.00 in1015.9 mb - 0.00 in0.0 mm 0.00 in0.0 mm
02:52 PM 88.0°F31.1°C 56.8°F13.8°C 35% 2.2 mph N3.5 kmh N 2.0 mph3.2 kmh 30.00 in1015.9 mb - 0.00 in0.0 mm 0.00 in0.0 mm
02:57 PM 88.2°F31.2°C 57.0°F13.9°C 35% 2.5 mph NE4.0 kmh NE 12.1 mph19.5 kmh 30.00 in1015.9 mb - 0.00 in0.0 mm 0.00 in0.0 mm
03:02 PM 87.4°F30.8°C 57.2°F14.0°C 36% 3.6 mph NNE5.8 kmh NNE -- 30.00 in1015.9 mb - 0.00 in0.0 mm 0.00 in0.0 mm
03:07 PM 87.6°F30.9°C 56.7°F13.7°C 35% 3.6 mph NNE5.8 kmh NNE 4.9 mph7.9 kmh 30.00 in1015.9 mb - 0.00 in0.0 mm 0.00 in0.0 mm
03:12 PM 87.6°F30.9°C 57.4°F14.1°C 36% 3.8 mph NNE6.1 kmh NNE 4.9 mph7.9 kmh 29.99 in1015.6 mb - 0.00 in0.0 mm 0.00 in0.0 mm
03:17 PM 88.0°F31.1°C 56.8°F13.8°C 35% 3.1 mph NNE5.0 kmh NNE -- 29.99 in1015.6 mb - 0.00 in0.0 mm 0.00 in0.0 mm
03:22 PM 88.3°F31.3°C 57.2°F14.0°C 35% 1.6 mph NNE2.6 kmh NNE 6.9 mph11.1 kmh 29.99 in1015.6 mb - 0.00 in0.0 mm 0.00 in0.0 mm
03:27 PM 88.5°F31.4°C 57.4°F14.1°C 35% 2.9 mph NNW4.7 kmh NNW 4.9 mph7.9 kmh 29.99 in1015.6 mb - 0.00 in0.0 mm 0.00 in0.0 mm
03:32 PM 88.2°F31.2°C 57.0°F13.9°C 35% 4.7 mph N7.6 kmh N 4.9 mph7.9 kmh 29.99 in1015.6 mb - 0.00 in0.0 mm 0.00 in0.0 mm
03:37 PM 88.0°F31.1°C 57.7°F14.3°C 36% 4.9 mph N7.9 kmh N 2.0 mph3.2 kmh 29.99 in1015.6 mb - 0.00 in0.0 mm 0.00 in0.0 mm
03:42 PM 88.0°F31.1°C 56.8°F13.8°C 35% 3.8 mph NE6.1 kmh NE 6.0 mph9.7 kmh 29.99 in1015.6 mb - 0.00 in0.0 mm 0.00 in0.0 mm
03:47 PM 87.4°F30.8°C 56.5°F13.6°C 35% 4.3 mph NE6.9 kmh NE 2.9 mph4.7 kmh 29.99 in1015.6 mb - 0.00 in0.0 mm 0.00 in0.0 mm
03:52 PM 87.6°F30.9°C 57.4°F14.1°C 36% 4.9 mph NNE7.9 kmh NNE 2.0 mph3.2 kmh 29.98 in1015.2 mb - 0.00 in0.0 mm 0.00 in0.0 mm
03:57 PM 88.0°F31.1°C 57.7°F14.3°C 36% 5.4 mph NNE8.7 kmh NNE 4.9 mph7.9 kmh 29.98 in1015.2 mb - 0.00 in0.0 mm 0.00 in0.0 mm
04:02 PM 88.2°F31.2°C 57.9°F14.4°C 36% 5.6 mph NE9.0 kmh NE 4.0 mph6.4 kmh 29.98 in1015.2 mb - 0.00 in0.0 mm 0.00 in0.0 mm
04:07 PM 87.6°F30.9°C 57.4°F14.1°C 36% 5.8 mph N9.3 kmh N 10.1 mph16.3 kmh 29.98 in1015.2 mb - 0.00 in0.0 mm 0.00 in0.0 mm
04:12 PM 87.6°F30.9°C 58.1°F14.5°C 37% 6.3 mph N10.1 kmh N 8.9 mph14.3 kmh 29.98 in1015.2 mb - 0.00 in0.0 mm 0.00 in0.0 mm
04:17 PM 87.8°F31.0°C 57.6°F14.2°C 36% 6.0 mph N9.7 kmh N 10.1 mph16.3 kmh 29.98 in1015.2 mb - 0.00 in0.0 mm 0.00 in0.0 mm
04:22 PM 88.2°F31.2°C 57.9°F14.4°C 36% 5.6 mph N9.0 kmh N 4.0 mph6.4 kmh 29.98 in1015.2 mb - 0.00 in0.0 mm 0.00 in0.0 mm
04:27 PM 88.3°F31.3°C 57.9°F14.4°C 36% 6.7 mph NW10.8 kmh NW 8.1 mph13.0 kmh 29.98 in1015.2 mb - 0.00 in0.0 mm 0.00 in0.0 mm
04:32 PM 88.2°F31.2°C 57.9°F14.4°C 36% 9.2 mph NW14.8 kmh NW 12.1 mph19.5 kmh 29.98 in1015.2 mb - 0.00 in0.0 mm 0.00 in0.0 mm
04:37 PM 87.8°F31.0°C 58.3°F14.6°C 37% 9.2 mph NW14.8 kmh NW 4.9 mph7.9 kmh 29.98 in1015.2 mb - 0.00 in0.0 mm 0.00 in0.0 mm
04:42 PM 87.6°F30.9°C 57.4°F14.1°C 36% 8.3 mph NNW13.4 kmh NNW 10.1 mph16.3 kmh 29.98 in1015.2 mb - 0.00 in0.0 mm 0.00 in0.0 mm
04:47 PM 87.6°F30.9°C 58.1°F14.5°C 37% 8.5 mph NNW13.7 kmh NNW 11.0 mph17.7 kmh 29.98 in1015.2 mb - 0.00 in0.0 mm 0.00 in0.0 mm
04:52 PM 87.3°F30.7°C 57.7°F14.3°C 37% 8.1 mph NW13.0 kmh NW 8.1 mph13.0 kmh 29.98 in1015.2 mb - 0.00 in0.0 mm 0.00 in0.0 mm
04:57 PM 87.1°F30.6°C 57.6°F14.2°C 37% 8.1 mph NNW13.0 kmh NNW 11.0 mph17.7 kmh 29.98 in1015.2 mb - 0.00 in0.0 mm 0.00 in0.0 mm
05:02 PM 87.3°F30.7°C 58.6°F14.8°C 38% 7.2 mph NW11.6 kmh NW 10.1 mph16.3 kmh 29.98 in1015.2 mb - 0.00 in0.0 mm 0.00 in0.0 mm
05:07 PM 87.1°F30.6°C 57.6°F14.2°C 37% 8.1 mph NNW13.0 kmh NNW 10.1 mph16.3 kmh 29.97 in1014.9 mb - 0.00 in0.0 mm 0.00 in0.0 mm
05:12 PM 87.1°F30.6°C 57.6°F14.2°C 37% 9.6 mph N15.4 kmh N 11.0 mph17.7 kmh 29.97 in1014.9 mb - 0.00 in0.0 mm 0.00 in0.0 mm
05:17 PM 87.1°F30.6°C 58.5°F14.7°C 38% 9.2 mph N14.8 kmh N 11.0 mph17.7 kmh 29.97 in1014.9 mb - 0.00 in0.0 mm 0.00 in0.0 mm
05:22 PM 87.1°F30.6°C 58.5°F14.7°C 38% 6.9 mph NNW11.1 kmh NNW 11.0 mph17.7 kmh 29.97 in1014.9 mb - 0.00 in0.0 mm 0.00 in0.0 mm
05:27 PM 87.1°F30.6°C 57.6°F14.2°C 37% 6.7 mph N10.8 kmh N 8.9 mph14.3 kmh 29.97 in1014.9 mb - 0.00 in0.0 mm 0.00 in0.0 mm
05:32 PM 87.1°F30.6°C 57.6°F14.2°C 37% 8.5 mph N13.7 kmh N 11.0 mph17.7 kmh 29.97 in1014.9 mb - 0.00 in0.0 mm 0.00 in0.0 mm
05:37 PM 86.7°F30.4°C 57.4°F14.1°C 37% 9.2 mph NNW14.8 kmh NNW 10.1 mph16.3 kmh 29.97 in1014.9 mb - 0.00 in0.0 mm 0.00 in0.0 mm
05:42 PM 86.4°F30.2°C 57.0°F13.9°C 37% 9.2 mph NNW14.8 kmh NNW 6.0 mph9.7 kmh 29.97 in1014.9 mb - 0.00 in0.0 mm 0.00 in0.0 mm
05:47 PM 86.4°F30.2°C 57.7°F14.3°C 38% 6.7 mph N10.8 kmh N 4.9 mph7.9 kmh 29.97 in1014.9 mb - 0.00 in0.0 mm 0.00 in0.0 mm
05:52 PM 86.4°F30.2°C 58.5°F14.7°C 39% 4.7 mph 7.6 kmh 8.9 mph14.3 kmh 29.97 in1014.9 mb - 0.00 in0.0 mm 0.00 in0.0 mm
05:57 PM 86.2°F30.1°C 57.6°F14.2°C 38% 5.8 mph NNW9.3 kmh NNW 11.0 mph17.7 kmh 29.97 in1014.9 mb - 0.00 in0.0 mm 0.00 in0.0 mm
06:02 PM 85.8°F29.9°C 57.2°F14.0°C 38% 6.9 mph N11.1 kmh N 12.1 mph19.5 kmh 29.97 in1014.9 mb - 0.00 in0.0 mm 0.00 in0.0 mm
06:07 PM 85.6°F29.8°C 57.2°F14.0°C 38% 6.7 mph N10.8 kmh N 2.0 mph3.2 kmh 29.97 in1014.9 mb - 0.00 in0.0 mm 0.00 in0.0 mm
06:12 PM 85.5°F29.7°C 57.0°F13.9°C 38% 6.5 mph N10.5 kmh N 8.1 mph13.0 kmh 29.97 in1014.9 mb - 0.00 in0.0 mm 0.00 in0.0 mm
06:17 PM 85.1°F29.5°C 56.7°F13.7°C 38% 6.3 mph N10.1 kmh N 11.0 mph17.7 kmh 29.97 in1014.9 mb - 0.00 in0.0 mm 0.00 in0.0 mm
06:22 PM 84.7°F29.3°C 57.0°F13.9°C 39% 7.8 mph N12.6 kmh N 8.9 mph14.3 kmh 29.97 in1014.9 mb - 0.00 in0.0 mm 0.00 in0.0 mm
06:27 PM 84.4°F29.1°C 56.7°F13.7°C 39% 7.4 mph NNE11.9 kmh NNE 8.9 mph14.3 kmh 29.97 in1014.9 mb - 0.00 in0.0 mm 0.00 in0.0 mm
06:32 PM 84.2°F29.0°C 57.2°F14.0°C 40% 6.5 mph N10.5 kmh N 10.1 mph16.3 kmh 29.97 in1014.9 mb - 0.00 in0.0 mm 0.00 in0.0 mm
06:37 PM 84.0°F28.9°C 57.0°F13.9°C 40% 7.4 mph N11.9 kmh N 6.9 mph11.1 kmh 29.97 in1014.9 mb - 0.00 in0.0 mm 0.00 in0.0 mm
06:42 PM 83.7°F28.7°C 57.4°F14.1°C 41% 6.9 mph NNE11.1 kmh NNE 2.9 mph4.7 kmh 29.97 in1014.9 mb - 0.00 in0.0 mm 0.00 in0.0 mm
06:47 PM 83.5°F28.6°C 57.9°F14.4°C 42% 5.1 mph N8.2 kmh N 4.0 mph6.4 kmh 29.97 in1014.9 mb - 0.00 in0.0 mm 0.00 in0.0 mm
06:52 PM 83.1°F28.4°C 57.6°F14.2°C 42% 5.6 mph N9.0 kmh N 10.1 mph16.3 kmh 29.97 in1014.9 mb - 0.00 in0.0 mm 0.00 in0.0 mm
06:57 PM 82.9°F28.3°C 57.6°F14.2°C 42% 4.9 mph N7.9 kmh N 4.0 mph6.4 kmh 29.97 in1014.9 mb - 0.00 in0.0 mm 0.00 in0.0 mm
07:02 PM 82.8°F28.2°C 57.4°F14.1°C 42% 4.7 mph NNW7.6 kmh NNW 8.9 mph14.3 kmh 29.97 in1014.9 mb - 0.00 in0.0 mm 0.00 in0.0 mm
07:07 PM 82.4°F28.0°C 57.0°F13.9°C 42% 5.6 mph NNW9.0 kmh NNW 4.0 mph6.4 kmh 29.97 in1014.9 mb - 0.00 in0.0 mm 0.00 in0.0 mm
07:12 PM 82.2°F27.9°C 57.6°F14.2°C 43% 4.9 mph NW7.9 kmh NW 4.0 mph6.4 kmh 29.97 in1014.9 mb - 0.00 in0.0 mm 0.00 in0.0 mm
07:17 PM 81.9°F27.7°C 56.5°F13.6°C 42% 6.0 mph N9.7 kmh N 10.1 mph16.3 kmh 29.97 in1014.9 mb - 0.00 in0.0 mm 0.00 in0.0 mm
07:22 PM 81.5°F27.5°C 56.8°F13.8°C 43% 5.8 mph NNW9.3 kmh NNW 12.1 mph19.5 kmh 29.97 in1014.9 mb - 0.00 in0.0 mm 0.00 in0.0 mm
07:27 PM 81.1°F27.3°C 55.9°F13.3°C 42% 6.0 mph N9.7 kmh N 8.1 mph13.0 kmh 29.97 in1014.9 mb - 0.00 in0.0 mm 0.00 in0.0 mm
07:32 PM 81.0°F27.2°C 56.3°F13.5°C 43% 8.5 mph N13.7 kmh N 11.0 mph17.7 kmh 29.98 in1015.2 mb - 0.00 in0.0 mm 0.00 in0.0 mm
07:37 PM 80.8°F27.1°C 56.1°F13.4°C 43% 7.4 mph N11.9 kmh N 2.9 mph4.7 kmh 29.98 in1015.2 mb - 0.00 in0.0 mm 0.00 in0.0 mm
07:42 PM 80.2°F26.8°C 56.3°F13.5°C 44% 4.0 mph N6.4 kmh N 2.0 mph3.2 kmh 29.98 in1015.2 mb - 0.00 in0.0 mm 0.00 in0.0 mm
07:47 PM 80.1°F26.7°C 56.1°F13.4°C 44% 4.9 mph NNW7.9 kmh NNW 10.1 mph16.3 kmh 29.98 in1015.2 mb - 0.00 in0.0 mm 0.00 in0.0 mm
07:52 PM 79.7°F26.5°C 56.5°F13.6°C 45% 6.9 mph N11.1 kmh N 2.0 mph3.2 kmh 29.98 in1015.2 mb - 0.00 in0.0 mm 0.00 in0.0 mm
07:57 PM 79.3°F26.3°C 56.1°F13.4°C 45% 5.6 mph NNW9.0 kmh NNW 4.0 mph6.4 kmh 29.98 in1015.2 mb - 0.00 in0.0 mm 0.00 in0.0 mm
08:02 PM 79.2°F26.2°C 56.7°F13.7°C 46% 4.0 mph NNW6.4 kmh NNW 2.0 mph3.2 kmh 29.98 in1015.2 mb - 0.00 in0.0 mm 0.00 in0.0 mm
08:07 PM 78.8°F26.0°C 56.8°F13.8°C 47% 2.7 mph NW4.3 kmh NW 2.9 mph4.7 kmh 29.98 in1015.2 mb - 0.00 in0.0 mm 0.00 in0.0 mm
08:12 PM 78.4°F25.8°C 57.2°F14.0°C 48% 2.2 mph N3.5 kmh N 2.9 mph4.7 kmh 29.98 in1015.2 mb - 0.00 in0.0 mm 0.00 in0.0 mm
08:17 PM 78.3°F25.7°C 57.0°F13.9°C 48% 4.7 mph NW7.6 kmh NW 2.0 mph3.2 kmh 29.99 in1015.6 mb - 0.00 in0.0 mm 0.00 in0.0 mm
08:22 PM 77.9°F25.5°C 57.2°F14.0°C 49% 4.9 mph NW7.9 kmh NW 4.9 mph7.9 kmh 29.99 in1015.6 mb - 0.00 in0.0 mm 0.00 in0.0 mm
08:27 PM 77.7°F25.4°C 57.0°F13.9°C 49% 3.6 mph NNW5.8 kmh NNW 2.9 mph4.7 kmh 29.99 in1015.6 mb - 0.00 in0.0 mm 0.00 in0.0 mm
08:32 PM 77.5°F25.3°C 57.4°F14.1°C 50% 2.9 mph NW4.7 kmh NW 0.9 mph1.4 kmh 29.99 in1015.6 mb - 0.00 in0.0 mm 0.00 in0.0 mm
08:37 PM 77.2°F25.1°C 57.7°F14.3°C 51% 1.3 mph WNW2.1 kmh WNW 2.9 mph4.7 kmh 29.99 in1015.6 mb - 0.00 in0.0 mm 0.00 in0.0 mm
08:42 PM 76.8°F24.9°C 57.9°F14.4°C 52% 0.9 mph NNW1.4 kmh NNW 2.0 mph3.2 kmh 29.99 in1015.6 mb - 0.00 in0.0 mm 0.00 in0.0 mm
08:47 PM 76.5°F24.7°C 58.1°F14.5°C 53% 0.7 mph NW1.1 kmh NW 2.0 mph3.2 kmh 29.99 in1015.6 mb - 0.00 in0.0 mm 0.00 in0.0 mm
08:52 PM 76.3°F24.6°C 58.5°F14.7°C 54% 0.9 mph NW1.4 kmh NW 0.9 mph1.4 kmh 29.99 in1015.6 mb - 0.00 in0.0 mm 0.00 in0.0 mm
08:57 PM 75.9°F24.4°C 58.6°F14.8°C 55% 0.9 mph NW1.4 kmh NW -- 30.00 in1015.9 mb - 0.00 in0.0 mm 0.00 in0.0 mm
09:02 PM 75.6°F24.2°C 58.3°F14.6°C 55% 0.7 mph NW1.1 kmh NW 0.9 mph1.4 kmh 30.00 in1015.9 mb - 0.00 in0.0 mm 0.00 in0.0 mm
09:07 PM 75.4°F24.1°C 59.0°F15.0°C 57% 0.9 mph NW1.4 kmh NW 0.9 mph1.4 kmh 30.00 in1015.9 mb - 0.00 in0.0 mm 0.00 in0.0 mm
09:12 PM 75.0°F23.9°C 59.7°F15.4°C 59% 1.6 mph NW2.6 kmh NW 2.9 mph4.7 kmh 30.00 in1015.9 mb - 0.00 in0.0 mm 0.00 in0.0 mm
09:17 PM 74.7°F23.7°C 59.9°F15.5°C 60% 1.6 mph NW2.6 kmh NW 2.9 mph4.7 kmh 30.00 in1015.9 mb - 0.00 in0.0 mm 0.00 in0.0 mm
09:22 PM 74.5°F23.6°C 60.1°F15.6°C 61% 1.8 mph WNW2.9 kmh WNW 2.0 mph3.2 kmh 30.00 in1015.9 mb - 0.00 in0.0 mm 0.00 in0.0 mm
09:27 PM 73.9°F23.3°C 59.7°F15.4°C 61% 1.8 mph NW2.9 kmh NW 2.0 mph3.2 kmh 30.00 in1015.9 mb - 0.00 in0.0 mm 0.00 in0.0 mm
09:32 PM 73.8°F23.2°C 59.9°F15.5°C 62% 1.8 mph NW2.9 kmh NW 2.0 mph3.2 kmh 30.00 in1015.9 mb - 0.00 in0.0 mm 0.00 in0.0 mm
09:37 PM 73.2°F22.9°C 59.9°F15.5°C 63% 1.8 mph WNW2.9 kmh WNW 2.9 mph4.7 kmh 30.00 in1015.9 mb - 0.00 in0.0 mm 0.00 in0.0 mm
09:42 PM 73.0°F22.8°C 59.7°F15.4°C 63% 1.6 mph NW2.6 kmh NW 0.9 mph1.4 kmh 30.00 in1015.9 mb - 0.00 in0.0 mm 0.00 in0.0 mm
09:47 PM 72.9°F22.7°C 59.9°F15.5°C 64% 1.8 mph WNW2.9 kmh WNW 0.9 mph1.4 kmh 30.00 in1015.9 mb - 0.00 in0.0 mm 0.00 in0.0 mm
09:52 PM 72.7°F22.6°C 59.7°F15.4°C 64% 1.8 mph NW2.9 kmh NW 2.9 mph4.7 kmh 30.01 in1016.3 mb - 0.00 in0.0 mm 0.00 in0.0 mm
09:57 PM 72.3°F22.4°C 59.5°F15.3°C 64% 1.6 mph NW2.6 kmh NW 2.9 mph4.7 kmh 30.01 in1016.3 mb - 0.00 in0.0 mm 0.00 in0.0 mm
10:02 PM 72.1°F22.3°C 59.7°F15.4°C 65% 1.8 mph NW2.9 kmh NW 2.9 mph4.7 kmh 30.01 in1016.3 mb - 0.00 in0.0 mm 0.00 in0.0 mm
10:07 PM 72.0°F22.2°C 59.5°F15.3°C 65% 2.0 mph NW3.2 kmh NW 0.9 mph1.4 kmh 30.00 in1015.9 mb - 0.00 in0.0 mm 0.00 in0.0 mm
10:12 PM 72.0°F22.2°C 59.5°F15.3°C 65% 2.2 mph WNW3.5 kmh WNW 2.0 mph3.2 kmh 30.00 in1015.9 mb - 0.00 in0.0 mm 0.00 in0.0 mm
10:17 PM 71.8°F22.1°C 59.4°F15.2°C 65% 2.7 mph WNW4.3 kmh WNW -- 30.00 in1015.9 mb - 0.00 in0.0 mm 0.00 in0.0 mm
10:22 PM 71.6°F22.0°C 59.7°F15.4°C 66% 2.5 mph NW4.0 kmh NW 2.0 mph3.2 kmh 30.00 in1015.9 mb - 0.00 in0.0 mm 0.00 in0.0 mm
10:27 PM 71.4°F21.9°C 59.5°F15.3°C 66% 2.0 mph NW3.2 kmh NW 2.0 mph3.2 kmh 30.00 in1015.9 mb - 0.00 in0.0 mm 0.00 in0.0 mm
10:32 PM 71.2°F21.8°C 59.4°F15.2°C 66% 2.0 mph WNW3.2 kmh WNW 2.9 mph4.7 kmh 30.00 in1015.9 mb - 0.00 in0.0 mm 0.00 in0.0 mm
10:37 PM 71.1°F21.7°C 59.5°F15.3°C 67% 2.2 mph NW3.5 kmh NW 2.0 mph3.2 kmh 30.00 in1015.9 mb - 0.00 in0.0 mm 0.00 in0.0 mm
10:42 PM 71.1°F21.7°C 59.5°F15.3°C 67% 2.2 mph NW3.5 kmh NW 2.0 mph3.2 kmh 30.00 in1015.9 mb - 0.00 in0.0 mm 0.00 in0.0 mm
10:47 PM 70.9°F21.6°C 59.4°F15.2°C 67% 1.8 mph WNW2.9 kmh WNW 2.9 mph4.7 kmh 30.00 in1015.9 mb - 0.00 in0.0 mm 0.00 in0.0 mm
10:52 PM 70.7°F21.5°C 59.2°F15.1°C 67% 1.3 mph WNW2.1 kmh WNW 4.0 mph6.4 kmh 30.00 in1015.9 mb - 0.00 in0.0 mm 0.00 in0.0 mm
10:57 PM 70.5°F21.4°C 59.4°F15.2°C 68% 1.8 mph WNW2.9 kmh WNW 2.9 mph4.7 kmh 30.00 in1015.9 mb - 0.00 in0.0 mm 0.00 in0.0 mm
11:02 PM 70.3°F21.3°C 59.4°F15.2°C 68% 2.2 mph NW3.5 kmh NW 0.9 mph1.4 kmh 30.00 in1015.9 mb - 0.00 in0.0 mm 0.00 in0.0 mm
11:07 PM 70.3°F21.3°C 59.4°F15.2°C 68% 1.3 mph WNW2.1 kmh WNW 2.0 mph3.2 kmh 30.00 in1015.9 mb - 0.00 in0.0 mm 0.00 in0.0 mm
11:12 PM 70.2°F21.2°C 59.2°F15.1°C 68% 0.9 mph NW1.4 kmh NW 2.0 mph3.2 kmh 30.00 in1015.9 mb - 0.00 in0.0 mm 0.00 in0.0 mm
11:17 PM 70.0°F21.1°C 59.0°F15.0°C 68% 1.1 mph NW1.8 kmh NW -- 30.00 in1015.9 mb - 0.00 in0.0 mm 0.00 in0.0 mm
11:22 PM 70.0°F21.1°C 59.0°F15.0°C 68% 1.3 mph NW2.1 kmh NW 2.0 mph3.2 kmh 30.00 in1015.9 mb - 0.00 in0.0 mm 0.00 in0.0 mm
11:27 PM 70.0°F21.1°C 59.0°F15.0°C 68% 1.6 mph NW2.6 kmh NW 2.0 mph3.2 kmh 30.00 in1015.9 mb - 0.00 in0.0 mm 0.00 in0.0 mm
11:32 PM 69.8°F21.0°C 58.8°F14.9°C 68% 1.1 mph NW1.8 kmh NW -- 30.00 in1015.9 mb - 0.00 in0.0 mm 0.00 in0.0 mm
11:37 PM 69.6°F20.9°C 58.6°F14.8°C 68% 0.2 mph NW0.3 kmh NW -- 30.00 in1015.9 mb - 0.00 in0.0 mm 0.00 in0.0 mm
11:42 PM 69.6°F20.9°C 58.6°F14.8°C 68% 0.4 mph NW0.6 kmh NW -- 30.00 in1015.9 mb - 0.00 in0.0 mm 0.00 in0.0 mm
11:47 PM 69.4°F20.8°C 58.8°F14.9°C 69% 0.4 mph NW0.6 kmh NW -- 30.00 in1015.9 mb - 0.00 in0.0 mm 0.00 in0.0 mm
11:52 PM 69.4°F20.8°C 58.8°F14.9°C 69% Calm Calm 2.9 mph4.7 kmh 30.00 in1015.9 mb - 0.00 in0.0 mm 0.00 in0.0 mm
11:57 PM 69.3°F20.7°C 58.6°F14.8°C 69% 0.7 mph NW1.1 kmh NW 2.9 mph4.7 kmh 30.00 in1015.9 mb - 0.00 in0.0 mm 0.00 in0.0 mm